sensor_id;sensor_type;location;lat;lon;timestamp;P1;durP1;ratioP1;P2;durP2;ratioP2
18887;SDS011;9576;47.792;9.628;2023-02-15T00:00:29;32.72;;;12.00;;
18887;SDS011;9576;47.792;9.628;2023-02-15T00:03:30;29.85;;;13.25;;
18887;SDS011;9576;47.792;9.628;2023-02-15T00:06:32;35.50;;;12.10;;
18887;SDS011;9576;47.792;9.628;2023-02-15T00:09:35;40.72;;;12.05;;
18887;SDS011;9576;47.792;9.628;2023-02-15T00:12:37;31.10;;;13.13;;
18887;SDS011;9576;47.792;9.628;2023-02-15T00:15:40;31.90;;;12.25;;
18887;SDS011;9576;47.792;9.628;2023-02-15T00:18:42;50.17;;;12.48;;
18887;SDS011;9576;47.792;9.628;2023-02-15T00:21:44;27.33;;;11.35;;
18887;SDS011;9576;47.792;9.628;2023-02-15T00:24:47;36.47;;;12.50;;
18887;SDS011;9576;47.792;9.628;2023-02-15T00:27:50;30.83;;;12.23;;
18887;SDS011;9576;47.792;9.628;2023-02-15T00:30:53;37.15;;;11.63;;
18887;SDS011;9576;47.792;9.628;2023-02-15T00:33:55;38.03;;;13.25;;
18887;SDS011;9576;47.792;9.628;2023-02-15T00:36:57;23.55;;;11.18;;
18887;SDS011;9576;47.792;9.628;2023-02-15T00:39:59;40.65;;;15.15;;
18887;SDS011;9576;47.792;9.628;2023-02-15T00:43:00;30.95;;;11.82;;
18887;SDS011;9576;47.792;9.628;2023-02-15T00:46:04;38.78;;;14.00;;
18887;SDS011;9576;47.792;9.628;2023-02-15T00:49:06;30.00;;;13.70;;
18887;SDS011;9576;47.792;9.628;2023-02-15T00:52:09;28.10;;;12.52;;
18887;SDS011;9576;47.792;9.628;2023-02-15T00:55:11;28.95;;;12.57;;
18887;SDS011;9576;47.792;9.628;2023-02-15T00:58:13;35.55;;;13.02;;
18887;SDS011;9576;47.792;9.628;2023-02-15T01:01:17;34.90;;;12.85;;
18887;SDS011;9576;47.792;9.628;2023-02-15T01:04:20;38.83;;;12.27;;
18887;SDS011;9576;47.792;9.628;2023-02-15T01:07:22;33.67;;;12.65;;
18887;SDS011;9576;47.792;9.628;2023-02-15T01:10:24;40.92;;;12.82;;
18887;SDS011;9576;47.792;9.628;2023-02-15T01:13:27;24.08;;;11.30;;
18887;SDS011;9576;47.792;9.628;2023-02-15T01:16:30;30.48;;;12.25;;
18887;SDS011;9576;47.792;9.628;2023-02-15T01:19:32;30.17;;;11.90;;
18887;SDS011;9576;47.792;9.628;2023-02-15T01:22:34;27.33;;;11.65;;
18887;SDS011;9576;47.792;9.628;2023-02-15T01:25:36;32.13;;;11.57;;
18887;SDS011;9576;47.792;9.628;2023-02-15T01:28:38;28.65;;;11.90;;
18887;SDS011;9576;47.792;9.628;2023-02-15T01:31:41;35.78;;;12.13;;
18887;SDS011;9576;47.792;9.628;2023-02-15T01:34:43;26.38;;;11.35;;
18887;SDS011;9576;47.792;9.628;2023-02-15T01:37:45;39.92;;;12.40;;
18887;SDS011;9576;47.792;9.628;2023-02-15T01:40:50;26.85;;;12.05;;
18887;SDS011;9576;47.792;9.628;2023-02-15T01:43:52;22.88;;;11.88;;
18887;SDS011;9576;47.792;9.628;2023-02-15T01:46:57;36.63;;;11.50;;
18887;SDS011;9576;47.792;9.628;2023-02-15T01:50:02;40.72;;;10.95;;
18887;SDS011;9576;47.792;9.628;2023-02-15T01:53:11;27.42;;;10.50;;
18887;SDS011;9576;47.792;9.628;2023-02-15T01:56:17;28.40;;;11.50;;
18887;SDS011;9576;47.792;9.628;2023-02-15T01:59:22;26.35;;;11.73;;
18887;SDS011;9576;47.792;9.628;2023-02-15T02:02:26;25.33;;;11.20;;
18887;SDS011;9576;47.792;9.628;2023-02-15T02:05:29;29.57;;;12.47;;
18887;SDS011;9576;47.792;9.628;2023-02-15T02:08:31;35.55;;;11.32;;
18887;SDS011;9576;47.792;9.628;2023-02-15T02:11:34;33.88;;;11.18;;
18887;SDS011;9576;47.792;9.628;2023-02-15T02:14:36;49.28;;;11.70;;
18887;SDS011;9576;47.792;9.628;2023-02-15T02:17:43;32.55;;;13.35;;
18887;SDS011;9576;47.792;9.628;2023-02-15T02:24:41;31.85;;;12.02;;
18887;SDS011;9576;47.792;9.628;2023-02-15T02:28:16;27.90;;;12.15;;
18887;SDS011;9576;47.792;9.628;2023-02-15T02:31:34;28.80;;;10.73;;
18887;SDS011;9576;47.792;9.628;2023-02-15T02:34:46;23.92;;;10.98;;
18887;SDS011;9576;47.792;9.628;2023-02-15T02:37:58;37.22;;;12.80;;
18887;SDS011;9576;47.792;9.628;2023-02-15T02:41:08;29.38;;;11.70;;
18887;SDS011;9576;47.792;9.628;2023-02-15T02:44:18;47.90;;;11.23;;
18887;SDS011;9576;47.792;9.628;2023-02-15T02:47:26;41.28;;;11.80;;
18887;SDS011;9576;47.792;9.628;2023-02-15T02:50:33;40.95;;;11.65;;
18887;SDS011;9576;47.792;9.628;2023-02-15T02:53:35;40.22;;;12.07;;
18887;SDS011;9576;47.792;9.628;2023-02-15T02:56:37;27.42;;;11.93;;
18887;SDS011;9576;47.792;9.628;2023-02-15T02:59:43;40.10;;;13.00;;
18887;SDS011;9576;47.792;9.628;2023-02-15T03:02:48;28.55;;;11.45;;
18887;SDS011;9576;47.792;9.628;2023-02-15T03:05:56;31.45;;;11.80;;
18887;SDS011;9576;47.792;9.628;2023-02-15T03:09:01;39.42;;;11.80;;
18887;SDS011;9576;47.792;9.628;2023-02-15T03:12:14;32.40;;;10.90;;
18887;SDS011;9576;47.792;9.628;2023-02-15T03:15:19;46.28;;;10.85;;
18887;SDS011;9576;47.792;9.628;2023-02-15T03:18:23;36.95;;;11.95;;
18887;SDS011;9576;47.792;9.628;2023-02-15T03:21:34;38.15;;;10.82;;
18887;SDS011;9576;47.792;9.628;2023-02-15T03:24:40;25.98;;;11.57;;
18887;SDS011;9576;47.792;9.628;2023-02-15T03:30:48;49.88;;;11.40;;
18887;SDS011;9576;47.792;9.628;2023-02-15T03:33:54;21.20;;;9.93;;
18887;SDS011;9576;47.792;9.628;2023-02-15T03:37:03;52.50;;;11.13;;
18887;SDS011;9576;47.792;9.628;2023-02-15T03:40:11;52.25;;;10.30;;
18887;SDS011;9576;47.792;9.628;2023-02-15T03:43:38;23.25;;;10.85;;
18887;SDS011;9576;47.792;9.628;2023-02-15T03:46:45;38.00;;;12.05;;
18887;SDS011;9576;47.792;9.628;2023-02-15T03:49:53;27.10;;;11.40;;
18887;SDS011;9576;47.792;9.628;2023-02-15T03:53:00;27.90;;;11.98;;
18887;SDS011;9576;47.792;9.628;2023-02-15T03:56:05;23.83;;;10.43;;
18887;SDS011;9576;47.792;9.628;2023-02-15T03:59:07;24.42;;;10.77;;
18887;SDS011;9576;47.792;9.628;2023-02-15T04:02:27;30.30;;;11.05;;
18887;SDS011;9576;47.792;9.628;2023-02-15T04:05:35;31.40;;;13.27;;
18887;SDS011;9576;47.792;9.628;2023-02-15T04:08:39;31.30;;;10.02;;
18887;SDS011;9576;47.792;9.628;2023-02-15T04:11:58;25.13;;;10.13;;
18887;SDS011;9576;47.792;9.628;2023-02-15T04:15:00;29.13;;;10.93;;
18887;SDS011;9576;47.792;9.628;2023-02-15T04:18:19;32.38;;;12.60;;
18887;SDS011;9576;47.792;9.628;2023-02-15T04:21:21;24.77;;;11.10;;
18887;SDS011;9576;47.792;9.628;2023-02-15T04:24:43;34.78;;;11.82;;
18887;SDS011;9576;47.792;9.628;2023-02-15T04:28:03;28.23;;;10.65;;
18887;SDS011;9576;47.792;9.628;2023-02-15T04:31:07;30.13;;;10.75;;
18887;SDS011;9576;47.792;9.628;2023-02-15T04:34:09;35.45;;;10.27;;
18887;SDS011;9576;47.792;9.628;2023-02-15T04:37:11;39.03;;;10.88;;
18887;SDS011;9576;47.792;9.628;2023-02-15T04:40:15;26.98;;;10.73;;
18887;SDS011;9576;47.792;9.628;2023-02-15T04:43:17;36.75;;;11.07;;
18887;SDS011;9576;47.792;9.628;2023-02-15T04:46:19;34.58;;;11.65;;
18887;SDS011;9576;47.792;9.628;2023-02-15T04:49:21;25.85;;;9.95;;
18887;SDS011;9576;47.792;9.628;2023-02-15T04:52:23;30.55;;;10.77;;
18887;SDS011;9576;47.792;9.628;2023-02-15T04:55:26;36.60;;;11.05;;
18887;SDS011;9576;47.792;9.628;2023-02-15T04:58:28;37.78;;;11.88;;
18887;SDS011;9576;47.792;9.628;2023-02-15T05:01:30;43.28;;;10.82;;
18887;SDS011;9576;47.792;9.628;2023-02-15T05:04:32;39.05;;;11.32;;
18887;SDS011;9576;47.792;9.628;2023-02-15T05:07:34;35.47;;;10.88;;
18887;SDS011;9576;47.792;9.628;2023-02-15T05:10:37;33.95;;;11.43;;
18887;SDS011;9576;47.792;9.628;2023-02-15T05:13:39;40.22;;;11.27;;
18887;SDS011;9576;47.792;9.628;2023-02-15T05:16:41;29.85;;;10.60;;
18887;SDS011;9576;47.792;9.628;2023-02-15T05:19:43;32.45;;;11.38;;
18887;SDS011;9576;47.792;9.628;2023-02-15T05:22:45;27.98;;;11.15;;
18887;SDS011;9576;47.792;9.628;2023-02-15T05:25:48;33.95;;;11.80;;
18887;SDS011;9576;47.792;9.628;2023-02-15T05:29:08;34.35;;;12.18;;
18887;SDS011;9576;47.792;9.628;2023-02-15T05:32:12;34.53;;;12.52;;
18887;SDS011;9576;47.792;9.628;2023-02-15T05:35:14;48.92;;;12.23;;
18887;SDS011;9576;47.792;9.628;2023-02-15T05:38:16;45.92;;;13.00;;
18887;SDS011;9576;47.792;9.628;2023-02-15T05:41:20;36.80;;;13.77;;
18887;SDS011;9576;47.792;9.628;2023-02-15T05:44:22;32.15;;;12.00;;
18887;SDS011;9576;47.792;9.628;2023-02-15T05:47:24;36.95;;;13.40;;
18887;SDS011;9576;47.792;9.628;2023-02-15T05:50:26;31.00;;;13.02;;
18887;SDS011;9576;47.792;9.628;2023-02-15T05:53:28;37.83;;;13.02;;
18887;SDS011;9576;47.792;9.628;2023-02-15T05:56:32;33.45;;;13.23;;
18887;SDS011;9576;47.792;9.628;2023-02-15T05:59:34;39.65;;;14.15;;
18887;SDS011;9576;47.792;9.628;2023-02-15T06:02:36;32.70;;;12.60;;
18887;SDS011;9576;47.792;9.628;2023-02-15T06:05:39;58.45;;;12.95;;
18887;SDS011;9576;47.792;9.628;2023-02-15T06:08:41;36.17;;;13.25;;
18887;SDS011;9576;47.792;9.628;2023-02-15T06:11:44;40.38;;;13.93;;
18887;SDS011;9576;47.792;9.628;2023-02-15T06:14:46;44.88;;;14.32;;
18887;SDS011;9576;47.792;9.628;2023-02-15T06:17:48;38.17;;;12.68;;
18887;SDS011;9576;47.792;9.628;2023-02-15T06:20:50;34.50;;;11.60;;
18887;SDS011;9576;47.792;9.628;2023-02-15T06:23:52;41.83;;;12.48;;
18887;SDS011;9576;47.792;9.628;2023-02-15T06:26:55;38.00;;;12.82;;
18887;SDS011;9576;47.792;9.628;2023-02-15T06:29:57;35.33;;;12.98;;
18887;SDS011;9576;47.792;9.628;2023-02-15T06:32:59;57.50;;;12.50;;
18887;SDS011;9576;47.792;9.628;2023-02-15T06:36:01;37.47;;;12.75;;
18887;SDS011;9576;47.792;9.628;2023-02-15T06:39:04;34.50;;;13.88;;
18887;SDS011;9576;47.792;9.628;2023-02-15T06:42:07;38.25;;;14.05;;
18887;SDS011;9576;47.792;9.628;2023-02-15T06:45:10;36.30;;;13.10;;
18887;SDS011;9576;47.792;9.628;2023-02-15T06:48:12;31.20;;;12.13;;
18887;SDS011;9576;47.792;9.628;2023-02-15T06:51:14;45.13;;;13.95;;
18887;SDS011;9576;47.792;9.628;2023-02-15T06:54:16;39.70;;;13.15;;
18887;SDS011;9576;47.792;9.628;2023-02-15T06:57:20;42.20;;;13.07;;
18887;SDS011;9576;47.792;9.628;2023-02-15T07:00:22;60.60;;;15.32;;
18887;SDS011;9576;47.792;9.628;2023-02-15T07:03:24;37.10;;;12.30;;
18887;SDS011;9576;47.792;9.628;2023-02-15T07:06:26;39.80;;;12.90;;
18887;SDS011;9576;47.792;9.628;2023-02-15T07:09:31;34.92;;;12.55;;
18887;SDS011;9576;47.792;9.628;2023-02-15T07:12:34;34.17;;;12.40;;
18887;SDS011;9576;47.792;9.628;2023-02-15T07:15:42;36.38;;;14.80;;
18887;SDS011;9576;47.792;9.628;2023-02-15T07:18:44;34.78;;;13.02;;
18887;SDS011;9576;47.792;9.628;2023-02-15T07:21:46;40.28;;;14.38;;
18887;SDS011;9576;47.792;9.628;2023-02-15T07:24:48;42.15;;;16.15;;
18887;SDS011;9576;47.792;9.628;2023-02-15T07:27:56;36.20;;;13.63;;
18887;SDS011;9576;47.792;9.628;2023-02-15T07:30:58;40.53;;;13.82;;
18887;SDS011;9576;47.792;9.628;2023-02-15T07:34:02;38.78;;;15.25;;
18887;SDS011;9576;47.792;9.628;2023-02-15T07:37:04;38.95;;;13.57;;
18887;SDS011;9576;47.792;9.628;2023-02-15T07:40:06;38.92;;;13.93;;
18887;SDS011;9576;47.792;9.628;2023-02-15T07:43:10;42.72;;;15.20;;
18887;SDS011;9576;47.792;9.628;2023-02-15T07:46:12;44.28;;;15.10;;
18887;SDS011;9576;47.792;9.628;2023-02-15T07:52:18;25.10;;;11.07;;
18887;SDS011;9576;47.792;9.628;2023-02-15T07:55:20;37.55;;;12.55;;
18887;SDS011;9576;47.792;9.628;2023-02-15T07:58:23;38.47;;;14.15;;
18887;SDS011;9576;47.792;9.628;2023-02-15T08:01:45;39.03;;;16.02;;
18887;SDS011;9576;47.792;9.628;2023-02-15T08:04:47;44.90;;;13.77;;
18887;SDS011;9576;47.792;9.628;2023-02-15T08:07:49;45.95;;;13.20;;
18887;SDS011;9576;47.792;9.628;2023-02-15T08:10:51;47.92;;;14.43;;
18887;SDS011;9576;47.792;9.628;2023-02-15T08:14:12;46.28;;;14.50;;
18887;SDS011;9576;47.792;9.628;2023-02-15T08:17:15;42.92;;;16.35;;
18887;SDS011;9576;47.792;9.628;2023-02-15T08:20:18;38.35;;;13.10;;
18887;SDS011;9576;47.792;9.628;2023-02-15T08:23:20;43.25;;;14.40;;
18887;SDS011;9576;47.792;9.628;2023-02-15T08:26:22;46.80;;;17.15;;
18887;SDS011;9576;47.792;9.628;2023-02-15T08:29:26;35.63;;;14.18;;
18887;SDS011;9576;47.792;9.628;2023-02-15T08:32:29;46.85;;;16.40;;
18887;SDS011;9576;47.792;9.628;2023-02-15T08:35:31;41.22;;;14.55;;
18887;SDS011;9576;47.792;9.628;2023-02-15T08:38:33;43.17;;;14.52;;
18887;SDS011;9576;47.792;9.628;2023-02-15T08:41:36;41.90;;;14.02;;
18887;SDS011;9576;47.792;9.628;2023-02-15T08:44:40;31.65;;;13.73;;
18887;SDS011;9576;47.792;9.628;2023-02-15T08:47:42;38.47;;;15.45;;
18887;SDS011;9576;47.792;9.628;2023-02-15T08:50:44;44.88;;;14.27;;
18887;SDS011;9576;47.792;9.628;2023-02-15T08:53:46;36.05;;;13.32;;
18887;SDS011;9576;47.792;9.628;2023-02-15T08:56:50;48.63;;;16.40;;
18887;SDS011;9576;47.792;9.628;2023-02-15T08:59:53;51.08;;;16.80;;
18887;SDS011;9576;47.792;9.628;2023-02-15T09:02:55;40.78;;;15.63;;
18887;SDS011;9576;47.792;9.628;2023-02-15T09:05:58;35.03;;;15.13;;
18887;SDS011;9576;47.792;9.628;2023-02-15T09:09:00;43.17;;;14.82;;
18887;SDS011;9576;47.792;9.628;2023-02-15T09:12:03;32.53;;;14.30;;
18887;SDS011;9576;47.792;9.628;2023-02-15T09:15:07;36.30;;;14.75;;
18887;SDS011;9576;47.792;9.628;2023-02-15T09:18:09;33.33;;;14.10;;
18887;SDS011;9576;47.792;9.628;2023-02-15T09:21:17;39.33;;;15.15;;
18887;SDS011;9576;47.792;9.628;2023-02-15T09:24:20;35.07;;;12.57;;
18887;SDS011;9576;47.792;9.628;2023-02-15T09:27:22;39.55;;;12.60;;
18887;SDS011;9576;47.792;9.628;2023-02-15T09:30:26;37.10;;;12.90;;
18887;SDS011;9576;47.792;9.628;2023-02-15T09:33:28;41.60;;;15.05;;
18887;SDS011;9576;47.792;9.628;2023-02-15T09:36:30;35.22;;;14.77;;
18887;SDS011;9576;47.792;9.628;2023-02-15T09:39:33;39.05;;;15.25;;
18887;SDS011;9576;47.792;9.628;2023-02-15T09:42:58;48.55;;;16.85;;
18887;SDS011;9576;47.792;9.628;2023-02-15T09:46:25;37.00;;;14.77;;
18887;SDS011;9576;47.792;9.628;2023-02-15T09:49:38;46.08;;;16.20;;
18887;SDS011;9576;47.792;9.628;2023-02-15T09:52:48;26.27;;;10.85;;
18887;SDS011;9576;47.792;9.628;2023-02-15T09:56:05;33.67;;;13.70;;
18887;SDS011;9576;47.792;9.628;2023-02-15T09:59:15;40.17;;;13.88;;
18887;SDS011;9576;47.792;9.628;2023-02-15T10:02:27;39.00;;;13.50;;
18887;SDS011;9576;47.792;9.628;2023-02-15T10:05:43;44.28;;;15.48;;
18887;SDS011;9576;47.792;9.628;2023-02-15T10:08:58;31.20;;;13.57;;
18887;SDS011;9576;47.792;9.628;2023-02-15T10:12:10;37.90;;;13.77;;
18887;SDS011;9576;47.792;9.628;2023-02-15T10:15:34;54.75;;;17.27;;
18887;SDS011;9576;47.792;9.628;2023-02-15T10:18:53;41.83;;;15.77;;
18887;SDS011;9576;47.792;9.628;2023-02-15T10:22:01;43.88;;;16.10;;
18887;SDS011;9576;47.792;9.628;2023-02-15T10:25:20;46.67;;;16.85;;
18887;SDS011;9576;47.792;9.628;2023-02-15T10:28:35;44.97;;;15.70;;
18887;SDS011;9576;47.792;9.628;2023-02-15T10:31:45;35.35;;;13.98;;
18887;SDS011;9576;47.792;9.628;2023-02-15T10:34:52;37.45;;;14.00;;
18887;SDS011;9576;47.792;9.628;2023-02-15T10:38:04;32.95;;;14.35;;
18887;SDS011;9576;47.792;9.628;2023-02-15T10:44:27;43.47;;;17.02;;
18887;SDS011;9576;47.792;9.628;2023-02-15T10:47:44;41.05;;;14.23;;
18887;SDS011;9576;47.792;9.628;2023-02-15T10:50:59;49.63;;;17.08;;
18887;SDS011;9576;47.792;9.628;2023-02-15T10:54:05;47.30;;;18.10;;
18887;SDS011;9576;47.792;9.628;2023-02-15T10:57:21;44.38;;;18.95;;
18887;SDS011;9576;47.792;9.628;2023-02-15T11:00:31;42.28;;;17.35;;
18887;SDS011;9576;47.792;9.628;2023-02-15T11:03:48;55.72;;;16.70;;
18887;SDS011;9576;47.792;9.628;2023-02-15T11:07:06;53.00;;;18.83;;
18887;SDS011;9576;47.792;9.628;2023-02-15T11:10:18;50.13;;;18.95;;
18887;SDS011;9576;47.792;9.628;2023-02-15T11:13:28;54.47;;;17.10;;
18887;SDS011;9576;47.792;9.628;2023-02-15T11:16:36;44.05;;;18.13;;
18887;SDS011;9576;47.792;9.628;2023-02-15T11:19:41;45.25;;;17.17;;
18887;SDS011;9576;47.792;9.628;2023-02-15T11:22:51;41.58;;;16.67;;
18887;SDS011;9576;47.792;9.628;2023-02-15T11:25:56;58.00;;;17.10;;
18887;SDS011;9576;47.792;9.628;2023-02-15T11:29:00;54.78;;;16.33;;
18887;SDS011;9576;47.792;9.628;2023-02-15T11:32:12;39.28;;;16.23;;
18887;SDS011;9576;47.792;9.628;2023-02-15T11:35:22;47.20;;;17.60;;
18887;SDS011;9576;47.792;9.628;2023-02-15T11:38:31;51.20;;;18.90;;
18887;SDS011;9576;47.792;9.628;2023-02-15T11:41:36;52.15;;;17.85;;
18887;SDS011;9576;47.792;9.628;2023-02-15T11:44:43;45.33;;;19.02;;
18887;SDS011;9576;47.792;9.628;2023-02-15T11:47:53;43.60;;;17.15;;
18887;SDS011;9576;47.792;9.628;2023-02-15T11:50:56;51.55;;;18.92;;
18887;SDS011;9576;47.792;9.628;2023-02-15T11:53:59;41.72;;;16.73;;
18887;SDS011;9576;47.792;9.628;2023-02-15T11:57:06;47.53;;;16.55;;
18887;SDS011;9576;47.792;9.628;2023-02-15T12:00:16;60.65;;;19.38;;
18887;SDS011;9576;47.792;9.628;2023-02-15T12:03:35;44.03;;;18.10;;
18887;SDS011;9576;47.792;9.628;2023-02-15T12:06:46;53.67;;;16.83;;
18887;SDS011;9576;47.792;9.628;2023-02-15T12:09:55;51.35;;;17.17;;
18887;SDS011;9576;47.792;9.628;2023-02-15T12:13:11;47.42;;;18.02;;
18887;SDS011;9576;47.792;9.628;2023-02-15T12:16:14;43.47;;;16.92;;
18887;SDS011;9576;47.792;9.628;2023-02-15T12:19:24;47.90;;;18.95;;
18887;SDS011;9576;47.792;9.628;2023-02-15T12:22:31;42.03;;;18.30;;
18887;SDS011;9576;47.792;9.628;2023-02-15T12:25:39;43.72;;;18.58;;
18887;SDS011;9576;47.792;9.628;2023-02-15T12:28:42;42.70;;;16.83;;
18887;SDS011;9576;47.792;9.628;2023-02-15T12:31:49;41.70;;;17.88;;
18887;SDS011;9576;47.792;9.628;2023-02-15T12:34:54;50.83;;;18.70;;
18887;SDS011;9576;47.792;9.628;2023-02-15T12:38:01;52.30;;;19.85;;
18887;SDS011;9576;47.792;9.628;2023-02-15T12:41:19;53.88;;;19.30;;
18887;SDS011;9576;47.792;9.628;2023-02-15T12:44:25;42.97;;;17.63;;
18887;SDS011;9576;47.792;9.628;2023-02-15T12:47:29;40.92;;;19.30;;
18887;SDS011;9576;47.792;9.628;2023-02-15T12:50:32;46.88;;;18.35;;
18887;SDS011;9576;47.792;9.628;2023-02-15T12:53:35;40.17;;;16.77;;
18887;SDS011;9576;47.792;9.628;2023-02-15T12:56:40;46.83;;;17.08;;
18887;SDS011;9576;47.792;9.628;2023-02-15T12:59:48;50.40;;;18.33;;
18887;SDS011;9576;47.792;9.628;2023-02-15T13:02:52;41.67;;;18.45;;
18887;SDS011;9576;47.792;9.628;2023-02-15T13:05:56;44.38;;;16.92;;
18887;SDS011;9576;47.792;9.628;2023-02-15T13:09:05;41.60;;;17.35;;
18887;SDS011;9576;47.792;9.628;2023-02-15T13:12:18;53.33;;;18.70;;
18887;SDS011;9576;47.792;9.628;2023-02-15T13:15:26;41.10;;;16.33;;
18887;SDS011;9576;47.792;9.628;2023-02-15T13:18:32;36.25;;;15.63;;
18887;SDS011;9576;47.792;9.628;2023-02-15T13:21:37;39.72;;;15.80;;
18887;SDS011;9576;47.792;9.628;2023-02-15T13:24:43;42.15;;;17.00;;
18887;SDS011;9576;47.792;9.628;2023-02-15T13:27:50;42.92;;;18.23;;
18887;SDS011;9576;47.792;9.628;2023-02-15T13:30:54;44.97;;;17.60;;
18887;SDS011;9576;47.792;9.628;2023-02-15T13:33:58;47.38;;;17.35;;
18887;SDS011;9576;47.792;9.628;2023-02-15T13:37:05;37.08;;;17.25;;
18887;SDS011;9576;47.792;9.628;2023-02-15T13:40:14;41.33;;;17.13;;
18887;SDS011;9576;47.792;9.628;2023-02-15T13:43:28;41.13;;;17.45;;
18887;SDS011;9576;47.792;9.628;2023-02-15T13:46:45;40.50;;;16.92;;
18887;SDS011;9576;47.792;9.628;2023-02-15T13:50:04;43.60;;;17.65;;
18887;SDS011;9576;47.792;9.628;2023-02-15T13:53:22;44.67;;;18.52;;
18887;SDS011;9576;47.792;9.628;2023-02-15T13:56:42;39.28;;;16.98;;
18887;SDS011;9576;47.792;9.628;2023-02-15T13:59:57;33.55;;;15.93;;
18887;SDS011;9576;47.792;9.628;2023-02-15T14:06:58;35.35;;;15.52;;
18887;SDS011;9576;47.792;9.628;2023-02-15T14:10:23;36.95;;;16.02;;
18887;SDS011;9576;47.792;9.628;2023-02-15T14:16:48;28.65;;;13.93;;
18887;SDS011;9576;47.792;9.628;2023-02-15T14:19:57;31.88;;;15.50;;
18887;SDS011;9576;47.792;9.628;2023-02-15T14:23:05;42.55;;;15.85;;
18887;SDS011;9576;47.792;9.628;2023-02-15T14:26:18;33.80;;;14.88;;
18887;SDS011;9576;47.792;9.628;2023-02-15T14:29:27;43.28;;;19.17;;
18887;SDS011;9576;47.792;9.628;2023-02-15T14:32:39;33.90;;;14.32;;
18887;SDS011;9576;47.792;9.628;2023-02-15T14:35:45;45.47;;;17.48;;
18887;SDS011;9576;47.792;9.628;2023-02-15T14:38:51;41.20;;;17.58;;
18887;SDS011;9576;47.792;9.628;2023-02-15T14:42:02;29.98;;;14.50;;
18887;SDS011;9576;47.792;9.628;2023-02-15T14:45:17;33.80;;;14.70;;
18887;SDS011;9576;47.792;9.628;2023-02-15T14:48:25;29.20;;;15.10;;
18887;SDS011;9576;47.792;9.628;2023-02-15T14:54:59;32.88;;;15.77;;
18887;SDS011;9576;47.792;9.628;2023-02-15T14:58:01;31.15;;;15.98;;
18887;SDS011;9576;47.792;9.628;2023-02-15T15:01:04;40.83;;;15.77;;
18887;SDS011;9576;47.792;9.628;2023-02-15T15:04:10;35.17;;;16.15;;
18887;SDS011;9576;47.792;9.628;2023-02-15T15:07:17;29.40;;;14.73;;
18887;SDS011;9576;47.792;9.628;2023-02-15T15:10:35;47.00;;;17.08;;
18887;SDS011;9576;47.792;9.628;2023-02-15T15:17:01;26.90;;;15.10;;
18887;SDS011;9576;47.792;9.628;2023-02-15T15:20:08;36.03;;;16.25;;
18887;SDS011;9576;47.792;9.628;2023-02-15T15:26:40;32.05;;;15.85;;
18887;SDS011;9576;47.792;9.628;2023-02-15T15:29:47;30.45;;;15.80;;
18887;SDS011;9576;47.792;9.628;2023-02-15T15:32:50;35.17;;;16.25;;
18887;SDS011;9576;47.792;9.628;2023-02-15T15:36:06;32.75;;;16.70;;
18887;SDS011;9576;47.792;9.628;2023-02-15T15:39:37;47.08;;;17.35;;
18887;SDS011;9576;47.792;9.628;2023-02-15T15:46:50;38.53;;;16.70;;
18887;SDS011;9576;47.792;9.628;2023-02-15T15:53:15;42.28;;;16.23;;
18887;SDS011;9576;47.792;9.628;2023-02-15T15:56:22;47.97;;;18.55;;
18887;SDS011;9576;47.792;9.628;2023-02-15T15:59:30;42.17;;;18.73;;
18887;SDS011;9576;47.792;9.628;2023-02-15T16:02:33;42.73;;;19.20;;
18887;SDS011;9576;47.792;9.628;2023-02-15T16:05:36;40.88;;;19.17;;
18887;SDS011;9576;47.792;9.628;2023-02-15T16:08:40;47.08;;;20.42;;
18887;SDS011;9576;47.792;9.628;2023-02-15T16:11:42;56.90;;;21.02;;
18887;SDS011;9576;47.792;9.628;2023-02-15T16:14:45;50.60;;;19.90;;
18887;SDS011;9576;47.792;9.628;2023-02-15T16:17:52;51.90;;;20.48;;
18887;SDS011;9576;47.792;9.628;2023-02-15T16:20:55;40.22;;;18.20;;
18887;SDS011;9576;47.792;9.628;2023-02-15T16:24:08;49.40;;;19.67;;
18887;SDS011;9576;47.792;9.628;2023-02-15T16:27:35;48.13;;;20.27;;
18887;SDS011;9576;47.792;9.628;2023-02-15T16:30:38;44.67;;;17.25;;
18887;SDS011;9576;47.792;9.628;2023-02-15T16:33:42;51.45;;;19.67;;
18887;SDS011;9576;47.792;9.628;2023-02-15T16:36:45;46.08;;;19.00;;
18887;SDS011;9576;47.792;9.628;2023-02-15T16:39:49;44.15;;;18.48;;
18887;SDS011;9576;47.792;9.628;2023-02-15T16:42:51;53.03;;;20.57;;
18887;SDS011;9576;47.792;9.628;2023-02-15T16:45:58;55.22;;;19.63;;
18887;SDS011;9576;47.792;9.628;2023-02-15T16:49:06;49.60;;;20.05;;
18887;SDS011;9576;47.792;9.628;2023-02-15T16:52:19;50.05;;;20.02;;
18887;SDS011;9576;47.792;9.628;2023-02-15T16:55:25;51.92;;;21.67;;
18887;SDS011;9576;47.792;9.628;2023-02-15T16:58:37;54.33;;;19.88;;
18887;SDS011;9576;47.792;9.628;2023-02-15T17:01:43;52.67;;;17.88;;
18887;SDS011;9576;47.792;9.628;2023-02-15T17:04:53;41.53;;;18.35;;
18887;SDS011;9576;47.792;9.628;2023-02-15T17:08:12;43.00;;;19.85;;
18887;SDS011;9576;47.792;9.628;2023-02-15T17:11:17;60.38;;;18.95;;
18887;SDS011;9576;47.792;9.628;2023-02-15T17:14:21;46.20;;;18.43;;
18887;SDS011;9576;47.792;9.628;2023-02-15T17:17:29;40.80;;;17.85;;
18887;SDS011;9576;47.792;9.628;2023-02-15T17:20:32;42.63;;;18.95;;
18887;SDS011;9576;47.792;9.628;2023-02-15T17:23:37;63.45;;;17.85;;
18887;SDS011;9576;47.792;9.628;2023-02-15T17:26:42;43.63;;;18.33;;
18887;SDS011;9576;47.792;9.628;2023-02-15T17:29:52;47.05;;;18.58;;
18887;SDS011;9576;47.792;9.628;2023-02-15T17:32:58;52.13;;;18.25;;
18887;SDS011;9576;47.792;9.628;2023-02-15T17:36:06;61.17;;;22.40;;
18887;SDS011;9576;47.792;9.628;2023-02-15T17:39:18;54.00;;;18.55;;
18887;SDS011;9576;47.792;9.628;2023-02-15T17:42:22;56.13;;;21.00;;
18887;SDS011;9576;47.792;9.628;2023-02-15T17:45:27;53.55;;;21.38;;
18887;SDS011;9576;47.792;9.628;2023-02-15T17:48:33;46.67;;;20.90;;
18887;SDS011;9576;47.792;9.628;2023-02-15T17:51:37;60.05;;;19.35;;
18887;SDS011;9576;47.792;9.628;2023-02-15T17:54:38;48.90;;;20.23;;
18887;SDS011;9576;47.792;9.628;2023-02-15T17:57:58;54.08;;;22.88;;
18887;SDS011;9576;47.792;9.628;2023-02-15T18:01:03;67.55;;;23.15;;
18887;SDS011;9576;47.792;9.628;2023-02-15T18:04:25;55.75;;;24.02;;
18887;SDS011;9576;47.792;9.628;2023-02-15T18:07:44;53.15;;;21.25;;
18887;SDS011;9576;47.792;9.628;2023-02-15T18:11:03;95.07;;;37.17;;
18887;SDS011;9576;47.792;9.628;2023-02-15T18:14:23;84.95;;;35.65;;
18887;SDS011;9576;47.792;9.628;2023-02-15T18:17:27;57.30;;;24.13;;
18887;SDS011;9576;47.792;9.628;2023-02-15T18:20:31;52.28;;;21.92;;
18887;SDS011;9576;47.792;9.628;2023-02-15T18:23:36;59.70;;;23.02;;
18887;SDS011;9576;47.792;9.628;2023-02-15T18:26:38;50.13;;;19.23;;
18887;SDS011;9576;47.792;9.628;2023-02-15T18:29:40;59.35;;;21.85;;
18887;SDS011;9576;47.792;9.628;2023-02-15T18:32:43;55.05;;;22.08;;
18887;SDS011;9576;47.792;9.628;2023-02-15T18:35:47;58.05;;;22.67;;
18887;SDS011;9576;47.792;9.628;2023-02-15T18:38:50;53.95;;;21.05;;
18887;SDS011;9576;47.792;9.628;2023-02-15T18:41:53;54.33;;;22.38;;
18887;SDS011;9576;47.792;9.628;2023-02-15T18:44:56;61.97;;;22.92;;
18887;SDS011;9576;47.792;9.628;2023-02-15T18:51:03;48.85;;;21.63;;
18887;SDS011;9576;47.792;9.628;2023-02-15T18:54:12;62.40;;;23.35;;
18887;SDS011;9576;47.792;9.628;2023-02-15T18:57:18;48.67;;;20.63;;
18887;SDS011;9576;47.792;9.628;2023-02-15T19:00:21;52.53;;;21.67;;
18887;SDS011;9576;47.792;9.628;2023-02-15T19:03:26;73.00;;;28.77;;
18887;SDS011;9576;47.792;9.628;2023-02-15T19:06:28;110.00;;;44.22;;